Terminal Aerodrome Forecast
Issued by NWS

Home | Current Version | Previous Version | Text Only | Print | Product List | Glossary On
Versions: 1 2 3 4 5 6 7 8 9 10 11 12 13 14
000
FTUS46 KHNX 180520
TAFFAT
TAF
KFAT 180520Z 1806/1906 VRB03KT 4SM HZ BKN200
     FM182000 13009KT 6SM HZ SCT050 OVC080
     FM190300 12012KT 5SM -RA BR OVC025=

USA.gov is the U.S. government's official web portal to all federal, state and local government web resources and services.